sensor_id;sensor_type;location;lat;lon;timestamp;temperature;humidity
7445;DHT22;3764;48.126;11.594;2022-10-16T00:01:08;14.40;99.90
7445;DHT22;3764;48.126;11.594;2022-10-16T00:03:36;14.40;99.90
7445;DHT22;3764;48.126;11.594;2022-10-16T00:06:04;14.40;99.90
7445;DHT22;3764;48.126;11.594;2022-10-16T00:08:32;14.30;99.90
7445;DHT22;3764;48.126;11.594;2022-10-16T00:11:01;14.30;99.90
7445;DHT22;3764;48.126;11.594;2022-10-16T00:13:28;14.30;99.90
7445;DHT22;3764;48.126;11.594;2022-10-16T00:15:58;14.30;99.90
7445;DHT22;3764;48.126;11.594;2022-10-16T00:18:29;14.30;99.90
7445;DHT22;3764;48.126;11.594;2022-10-16T00:21:02;14.20;99.90
7445;DHT22;3764;48.126;11.594;2022-10-16T00:23:29;14.20;99.90
7445;DHT22;3764;48.126;11.594;2022-10-16T00:25:57;14.20;99.90
7445;DHT22;3764;48.126;11.594;2022-10-16T00:28:26;14.20;99.90
7445;DHT22;3764;48.126;11.594;2022-10-16T00:30:53;14.20;99.90
7445;DHT22;3764;48.126;11.594;2022-10-16T00:33:22;14.20;99.90
7445;DHT22;3764;48.126;11.594;2022-10-16T00:35:49;14.10;99.90
7445;DHT22;3764;48.126;11.594;2022-10-16T00:38:17;14.10;99.90
7445;DHT22;3764;48.126;11.594;2022-10-16T00:40:44;14.00;99.90
7445;DHT22;3764;48.126;11.594;2022-10-16T00:45:56;14.00;99.90
7445;DHT22;3764;48.126;11.594;2022-10-16T00:48:25;13.90;99.90
7445;DHT22;3764;48.126;11.594;2022-10-16T00:50:53;13.90;99.90
7445;DHT22;3764;48.126;11.594;2022-10-16T00:53:21;13.90;99.90
7445;DHT22;3764;48.126;11.594;2022-10-16T00:55:49;13.90;99.90
7445;DHT22;3764;48.126;11.594;2022-10-16T00:58:16;13.80;99.90
7445;DHT22;3764;48.126;11.594;2022-10-16T01:00:43;13.80;99.90
7445;DHT22;3764;48.126;11.594;2022-10-16T01:03:26;13.80;99.90
7445;DHT22;3764;48.126;11.594;2022-10-16T01:06:04;13.80;99.90
7445;DHT22;3764;48.126;11.594;2022-10-16T01:08:44;13.80;99.90
7445;DHT22;3764;48.126;11.594;2022-10-16T01:11:19;13.80;99.90
7445;DHT22;3764;48.126;11.594;2022-10-16T01:13:54;13.70;99.90
7445;DHT22;3764;48.126;11.594;2022-10-16T01:16:28;13.70;99.90
7445;DHT22;3764;48.126;11.594;2022-10-16T01:19:05;13.70;99.90
7445;DHT22;3764;48.126;11.594;2022-10-16T01:21:39;13.70;99.90
7445;DHT22;3764;48.126;11.594;2022-10-16T01:24:11;13.70;99.90
7445;DHT22;3764;48.126;11.594;2022-10-16T01:29:37;13.80;99.90
7445;DHT22;3764;48.126;11.594;2022-10-16T01:32:11;13.80;99.90
7445;DHT22;3764;48.126;11.594;2022-10-16T01:34:48;13.80;99.90
7445;DHT22;3764;48.126;11.594;2022-10-16T01:37:21;13.80;99.90
7445;DHT22;3764;48.126;11.594;2022-10-16T01:39:50;13.80;99.90
7445;DHT22;3764;48.126;11.594;2022-10-16T01:42:21;13.80;99.90
7445;DHT22;3764;48.126;11.594;2022-10-16T01:44:51;13.80;99.90
7445;DHT22;3764;48.126;11.594;2022-10-16T01:47:22;13.80;99.90
7445;DHT22;3764;48.126;11.594;2022-10-16T01:49:51;13.80;99.90
7445;DHT22;3764;48.126;11.594;2022-10-16T01:52:22;13.80;99.90
7445;DHT22;3764;48.126;11.594;2022-10-16T01:54:53;13.80;99.90
7445;DHT22;3764;48.126;11.594;2022-10-16T01:57:21;13.80;99.90
7445;DHT22;3764;48.126;11.594;2022-10-16T01:59:54;13.80;99.90
7445;DHT22;3764;48.126;11.594;2022-10-16T02:02:26;13.80;99.90
7445;DHT22;3764;48.126;11.594;2022-10-16T02:04:58;13.70;99.90
7445;DHT22;3764;48.126;11.594;2022-10-16T02:07:26;13.70;99.90
7445;DHT22;3764;48.126;11.594;2022-10-16T02:09:54;13.60;99.90
7445;DHT22;3764;48.126;11.594;2022-10-16T02:12:25;13.40;99.90
7445;DHT22;3764;48.126;11.594;2022-10-16T02:14:54;13.40;99.90
7445;DHT22;3764;48.126;11.594;2022-10-16T02:17:22;13.30;99.90
7445;DHT22;3764;48.126;11.594;2022-10-16T02:19:51;13.30;99.90
7445;DHT22;3764;48.126;11.594;2022-10-16T02:22:22;13.20;99.90
7445;DHT22;3764;48.126;11.594;2022-10-16T02:24:54;13.10;99.90
7445;DHT22;3764;48.126;11.594;2022-10-16T02:27:27;13.10;99.90
7445;DHT22;3764;48.126;11.594;2022-10-16T02:30:02;13.10;99.90
7445;DHT22;3764;48.126;11.594;2022-10-16T02:32:34;13.00;99.90
7445;DHT22;3764;48.126;11.594;2022-10-16T02:35:03;13.00;99.90
7445;DHT22;3764;48.126;11.594;2022-10-16T02:37:31;13.00;99.90
7445;DHT22;3764;48.126;11.594;2022-10-16T02:39:58;13.00;99.90
7445;DHT22;3764;48.126;11.594;2022-10-16T02:42:31;13.00;99.90
7445;DHT22;3764;48.126;11.594;2022-10-16T02:45:00;12.90;99.90
7445;DHT22;3764;48.126;11.594;2022-10-16T02:47:27;13.00;99.90
7445;DHT22;3764;48.126;11.594;2022-10-16T02:49:55;13.10;99.90
7445;DHT22;3764;48.126;11.594;2022-10-16T02:52:22;13.10;99.90
7445;DHT22;3764;48.126;11.594;2022-10-16T02:54:49;13.20;99.90
7445;DHT22;3764;48.126;11.594;2022-10-16T02:57:16;13.30;99.90
7445;DHT22;3764;48.126;11.594;2022-10-16T02:59:43;13.30;99.90
7445;DHT22;3764;48.126;11.594;2022-10-16T03:02:12;13.30;99.90
7445;DHT22;3764;48.126;11.594;2022-10-16T03:04:39;13.30;99.90
7445;DHT22;3764;48.126;11.594;2022-10-16T03:07:06;13.40;99.90
7445;DHT22;3764;48.126;11.594;2022-10-16T03:09:34;13.40;99.90
7445;DHT22;3764;48.126;11.594;2022-10-16T03:12:01;13.40;99.90
7445;DHT22;3764;48.126;11.594;2022-10-16T03:14:28;13.40;99.90
7445;DHT22;3764;48.126;11.594;2022-10-16T03:16:55;13.40;99.90
7445;DHT22;3764;48.126;11.594;2022-10-16T03:19:24;13.40;99.90
7445;DHT22;3764;48.126;11.594;2022-10-16T03:21:51;13.40;99.90
7445;DHT22;3764;48.126;11.594;2022-10-16T03:24:18;13.40;99.90
7445;DHT22;3764;48.126;11.594;2022-10-16T03:26:45;13.40;99.90
7445;DHT22;3764;48.126;11.594;2022-10-16T03:29:12;13.40;99.90
7445;DHT22;3764;48.126;11.594;2022-10-16T03:31:39;13.30;99.90
7445;DHT22;3764;48.126;11.594;2022-10-16T03:34:06;13.30;99.90
7445;DHT22;3764;48.126;11.594;2022-10-16T03:36:35;13.30;99.90
7445;DHT22;3764;48.126;11.594;2022-10-16T03:39:02;13.30;99.90
7445;DHT22;3764;48.126;11.594;2022-10-16T03:41:29;13.20;99.90
7445;DHT22;3764;48.126;11.594;2022-10-16T03:43:56;13.20;99.90
7445;DHT22;3764;48.126;11.594;2022-10-16T03:46:23;13.10;99.90
7445;DHT22;3764;48.126;11.594;2022-10-16T03:48:50;13.00;99.90
7445;DHT22;3764;48.126;11.594;2022-10-16T03:51:17;12.90;99.90
7445;DHT22;3764;48.126;11.594;2022-10-16T03:53:46;12.90;99.90
7445;DHT22;3764;48.126;11.594;2022-10-16T03:56:13;12.80;99.90
7445;DHT22;3764;48.126;11.594;2022-10-16T03:58:40;12.80;99.90
7445;DHT22;3764;48.126;11.594;2022-10-16T04:01:07;12.90;99.90
7445;DHT22;3764;48.126;11.594;2022-10-16T04:03:34;12.80;99.90
7445;DHT22;3764;48.126;11.594;2022-10-16T04:06:02;12.80;99.90
7445;DHT22;3764;48.126;11.594;2022-10-16T04:08:29;12.80;99.90
7445;DHT22;3764;48.126;11.594;2022-10-16T04:10:57;12.80;99.90
7445;DHT22;3764;48.126;11.594;2022-10-16T04:13:24;12.80;99.90
7445;DHT22;3764;48.126;11.594;2022-10-16T04:15:51;12.90;99.90
7445;DHT22;3764;48.126;11.594;2022-10-16T04:18:18;13.00;99.90
7445;DHT22;3764;48.126;11.594;2022-10-16T04:20:45;13.00;99.90
7445;DHT22;3764;48.126;11.594;2022-10-16T04:23:12;13.00;99.90
7445;DHT22;3764;48.126;11.594;2022-10-16T04:25:39;13.10;99.90
7445;DHT22;3764;48.126;11.594;2022-10-16T04:28:08;13.10;99.90
7445;DHT22;3764;48.126;11.594;2022-10-16T04:30:37;13.20;99.90
7445;DHT22;3764;48.126;11.594;2022-10-16T04:33:04;13.20;99.90
7445;DHT22;3764;48.126;11.594;2022-10-16T04:35:31;13.30;99.90
7445;DHT22;3764;48.126;11.594;2022-10-16T04:37:59;13.30;99.90
7445;DHT22;3764;48.126;11.594;2022-10-16T04:40:26;13.20;99.90
7445;DHT22;3764;48.126;11.594;2022-10-16T04:42:53;13.20;99.90
7445;DHT22;3764;48.126;11.594;2022-10-16T04:45:21;13.20;99.90
7445;DHT22;3764;48.126;11.594;2022-10-16T04:47:48;13.20;99.90
7445;DHT22;3764;48.126;11.594;2022-10-16T04:50:15;13.10;99.90
7445;DHT22;3764;48.126;11.594;2022-10-16T04:52:42;13.10;99.90
7445;DHT22;3764;48.126;11.594;2022-10-16T04:55:09;13.00;99.90
7445;DHT22;3764;48.126;11.594;2022-10-16T04:57:37;13.00;99.90
7445;DHT22;3764;48.126;11.594;2022-10-16T05:00:05;13.00;99.90
7445;DHT22;3764;48.126;11.594;2022-10-16T05:02:33;13.00;99.90
7445;DHT22;3764;48.126;11.594;2022-10-16T05:05:00;13.00;99.90
7445;DHT22;3764;48.126;11.594;2022-10-16T05:07:27;13.00;99.90
7445;DHT22;3764;48.126;11.594;2022-10-16T05:09:55;13.00;99.90
7445;DHT22;3764;48.126;11.594;2022-10-16T05:12:22;13.00;99.90
7445;DHT22;3764;48.126;11.594;2022-10-16T05:14:49;13.00;99.90
7445;DHT22;3764;48.126;11.594;2022-10-16T05:17:16;13.00;99.90
7445;DHT22;3764;48.126;11.594;2022-10-16T05:19:44;13.00;99.90
7445;DHT22;3764;48.126;11.594;2022-10-16T05:22:11;13.00;99.90
7445;DHT22;3764;48.126;11.594;2022-10-16T05:24:38;13.00;99.90
7445;DHT22;3764;48.126;11.594;2022-10-16T05:27:05;13.00;99.90
7445;DHT22;3764;48.126;11.594;2022-10-16T05:29:32;13.00;99.90
7445;DHT22;3764;48.126;11.594;2022-10-16T05:31:59;13.00;99.90
7445;DHT22;3764;48.126;11.594;2022-10-16T05:34:26;13.10;99.90
7445;DHT22;3764;48.126;11.594;2022-10-16T05:36:55;13.10;99.90
7445;DHT22;3764;48.126;11.594;2022-10-16T05:39:22;13.10;99.90
7445;DHT22;3764;48.126;11.594;2022-10-16T05:41:49;13.10;99.90
7445;DHT22;3764;48.126;11.594;2022-10-16T05:44:17;13.10;99.90
7445;DHT22;3764;48.126;11.594;2022-10-16T05:46:46;13.20;99.90
7445;DHT22;3764;48.126;11.594;2022-10-16T05:49:13;13.20;99.90
7445;DHT22;3764;48.126;11.594;2022-10-16T05:51:40;13.30;99.90
7445;DHT22;3764;48.126;11.594;2022-10-16T05:54:09;13.30;99.90
7445;DHT22;3764;48.126;11.594;2022-10-16T05:56:36;13.30;99.90
7445;DHT22;3764;48.126;11.594;2022-10-16T05:59:04;13.30;99.90
7445;DHT22;3764;48.126;11.594;2022-10-16T06:01:31;13.30;99.90
7445;DHT22;3764;48.126;11.594;2022-10-16T06:03:59;13.20;99.90
7445;DHT22;3764;48.126;11.594;2022-10-16T06:06:27;13.20;99.90
7445;DHT22;3764;48.126;11.594;2022-10-16T06:08:56;13.30;99.90
7445;DHT22;3764;48.126;11.594;2022-10-16T06:11:26;13.30;99.90
7445;DHT22;3764;48.126;11.594;2022-10-16T06:13:55;13.30;99.90
7445;DHT22;3764;48.126;11.594;2022-10-16T06:16:23;13.30;99.90
7445;DHT22;3764;48.126;11.594;2022-10-16T06:18:52;13.40;99.90
7445;DHT22;3764;48.126;11.594;2022-10-16T06:21:20;13.40;99.90
7445;DHT22;3764;48.126;11.594;2022-10-16T06:23:48;13.40;99.90
7445;DHT22;3764;48.126;11.594;2022-10-16T06:26:17;13.40;99.90
7445;DHT22;3764;48.126;11.594;2022-10-16T06:28:46;13.50;99.90
7445;DHT22;3764;48.126;11.594;2022-10-16T06:31:14;13.40;99.90
7445;DHT22;3764;48.126;11.594;2022-10-16T06:33:41;13.50;99.90
7445;DHT22;3764;48.126;11.594;2022-10-16T06:36:10;13.50;99.90
7445;DHT22;3764;48.126;11.594;2022-10-16T06:38:38;13.50;99.90
7445;DHT22;3764;48.126;11.594;2022-10-16T06:41:07;13.50;99.90
7445;DHT22;3764;48.126;11.594;2022-10-16T06:43:34;13.50;99.90
7445;DHT22;3764;48.126;11.594;2022-10-16T06:46:04;13.50;99.90
7445;DHT22;3764;48.126;11.594;2022-10-16T06:48:33;13.50;99.90
7445;DHT22;3764;48.126;11.594;2022-10-16T06:51:02;13.50;99.90
7445;DHT22;3764;48.126;11.594;2022-10-16T06:53:33;13.60;99.90
7445;DHT22;3764;48.126;11.594;2022-10-16T06:56:07;13.60;99.90
7445;DHT22;3764;48.126;11.594;2022-10-16T06:58:34;13.60;99.90
7445;DHT22;3764;48.126;11.594;2022-10-16T07:01:03;13.60;99.90
7445;DHT22;3764;48.126;11.594;2022-10-16T07:03:30;13.60;99.90
7445;DHT22;3764;48.126;11.594;2022-10-16T07:06:01;13.60;99.90
7445;DHT22;3764;48.126;11.594;2022-10-16T07:08:30;13.60;99.90
7445;DHT22;3764;48.126;11.594;2022-10-16T07:10:59;13.60;99.90
7445;DHT22;3764;48.126;11.594;2022-10-16T07:13:26;13.60;99.90
7445;DHT22;3764;48.126;11.594;2022-10-16T07:15:53;13.60;99.90
7445;DHT22;3764;48.126;11.594;2022-10-16T07:18:22;13.60;99.90
7445;DHT22;3764;48.126;11.594;2022-10-16T07:20:52;13.60;99.90
7445;DHT22;3764;48.126;11.594;2022-10-16T07:23:20;13.60;99.90
7445;DHT22;3764;48.126;11.594;2022-10-16T07:25:53;13.60;99.90
7445;DHT22;3764;48.126;11.594;2022-10-16T07:28:21;13.60;99.90
7445;DHT22;3764;48.126;11.594;2022-10-16T07:30:48;13.70;99.90
7445;DHT22;3764;48.126;11.594;2022-10-16T07:33:15;13.70;99.90
7445;DHT22;3764;48.126;11.594;2022-10-16T07:35:49;13.70;99.90
7445;DHT22;3764;48.126;11.594;2022-10-16T07:38:17;13.70;99.90
7445;DHT22;3764;48.126;11.594;2022-10-16T07:40:44;13.70;99.90
7445;DHT22;3764;48.126;11.594;2022-10-16T07:43:12;13.80;99.90
7445;DHT22;3764;48.126;11.594;2022-10-16T07:45:46;13.80;99.90
7445;DHT22;3764;48.126;11.594;2022-10-16T07:48:14;13.80;99.90
7445;DHT22;3764;48.126;11.594;2022-10-16T07:50:41;13.90;99.90
7445;DHT22;3764;48.126;11.594;2022-10-16T07:53:11;13.90;99.90
7445;DHT22;3764;48.126;11.594;2022-10-16T07:55:38;14.00;99.90
7445;DHT22;3764;48.126;11.594;2022-10-16T07:58:06;14.00;99.90
7445;DHT22;3764;48.126;11.594;2022-10-16T08:00:33;14.00;99.90
7445;DHT22;3764;48.126;11.594;2022-10-16T08:03:00;14.10;99.90
7445;DHT22;3764;48.126;11.594;2022-10-16T08:05:27;14.10;99.90
7445;DHT22;3764;48.126;11.594;2022-10-16T08:07:54;14.20;99.90
7445;DHT22;3764;48.126;11.594;2022-10-16T08:10:24;14.20;99.90
7445;DHT22;3764;48.126;11.594;2022-10-16T08:12:52;14.30;99.90
7445;DHT22;3764;48.126;11.594;2022-10-16T08:15:20;14.30;99.90
7445;DHT22;3764;48.126;11.594;2022-10-16T08:17:55;14.30;99.90
7445;DHT22;3764;48.126;11.594;2022-10-16T08:20:22;14.40;99.90
7445;DHT22;3764;48.126;11.594;2022-10-16T08:22:49;14.40;99.90
7445;DHT22;3764;48.126;11.594;2022-10-16T08:25:16;14.40;99.90
7445;DHT22;3764;48.126;11.594;2022-10-16T08:27:45;14.50;99.90
7445;DHT22;3764;48.126;11.594;2022-10-16T08:30:12;14.60;99.90
7445;DHT22;3764;48.126;11.594;2022-10-16T08:32:39;14.70;99.90
7445;DHT22;3764;48.126;11.594;2022-10-16T08:35:07;14.90;99.90
7445;DHT22;3764;48.126;11.594;2022-10-16T08:37:35;15.00;99.90
7445;DHT22;3764;48.126;11.594;2022-10-16T08:40:03;15.20;99.90
7445;DHT22;3764;48.126;11.594;2022-10-16T08:42:41;15.20;99.90
7445;DHT22;3764;48.126;11.594;2022-10-16T08:45:35;15.30;99.90
7445;DHT22;3764;48.126;11.594;2022-10-16T08:48:15;15.60;99.90
7445;DHT22;3764;48.126;11.594;2022-10-16T08:50:44;15.80;99.90
7445;DHT22;3764;48.126;11.594;2022-10-16T08:53:16;16.00;99.90
7445;DHT22;3764;48.126;11.594;2022-10-16T08:55:46;16.10;99.90
7445;DHT22;3764;48.126;11.594;2022-10-16T08:58:17;16.20;99.90
7445;DHT22;3764;48.126;11.594;2022-10-16T09:00:47;16.20;99.90
7445;DHT22;3764;48.126;11.594;2022-10-16T09:03:26;16.20;99.90
7445;DHT22;3764;48.126;11.594;2022-10-16T09:06:14;16.20;99.90
7445;DHT22;3764;48.126;11.594;2022-10-16T09:08:55;16.20;99.90
7445;DHT22;3764;48.126;11.594;2022-10-16T09:11:34;16.40;99.90
7445;DHT22;3764;48.126;11.594;2022-10-16T09:14:19;16.50;99.90
7445;DHT22;3764;48.126;11.594;2022-10-16T09:16:56;16.60;99.90
7445;DHT22;3764;48.126;11.594;2022-10-16T09:19:31;16.70;99.90
7445;DHT22;3764;48.126;11.594;2022-10-16T09:22:04;16.80;99.90
7445;DHT22;3764;48.126;11.594;2022-10-16T09:24:36;16.90;99.90
7445;DHT22;3764;48.126;11.594;2022-10-16T09:27:03;17.10;99.90
7445;DHT22;3764;48.126;11.594;2022-10-16T09:29:30;17.20;99.90
7445;DHT22;3764;48.126;11.594;2022-10-16T09:32:09;17.20;99.90
7445;DHT22;3764;48.126;11.594;2022-10-16T09:34:40;17.40;99.90
7445;DHT22;3764;48.126;11.594;2022-10-16T09:37:11;17.60;99.90
7445;DHT22;3764;48.126;11.594;2022-10-16T09:39:46;17.60;99.90
7445;DHT22;3764;48.126;11.594;2022-10-16T09:42:16;17.60;99.90
7445;DHT22;3764;48.126;11.594;2022-10-16T09:44:47;17.60;99.90
7445;DHT22;3764;48.126;11.594;2022-10-16T09:47:19;17.70;99.90
7445;DHT22;3764;48.126;11.594;2022-10-16T09:49:51;17.80;99.90
7445;DHT22;3764;48.126;11.594;2022-10-16T09:52:19;17.80;99.90
7445;DHT22;3764;48.126;11.594;2022-10-16T09:54:50;17.80;99.90
7445;DHT22;3764;48.126;11.594;2022-10-16T09:57:18;17.80;99.90
7445;DHT22;3764;48.126;11.594;2022-10-16T09:59:47;17.90;99.90
7445;DHT22;3764;48.126;11.594;2022-10-16T10:02:17;18.10;99.90
7445;DHT22;3764;48.126;11.594;2022-10-16T10:04:49;18.20;99.90
7445;DHT22;3764;48.126;11.594;2022-10-16T10:07:24;18.30;99.90
7445;DHT22;3764;48.126;11.594;2022-10-16T10:09:52;18.50;99.90
7445;DHT22;3764;48.126;11.594;2022-10-16T10:12:21;18.60;99.90
7445;DHT22;3764;48.126;11.594;2022-10-16T10:14:51;18.80;99.90
7445;DHT22;3764;48.126;11.594;2022-10-16T10:17:21;18.90;99.90
7445;DHT22;3764;48.126;11.594;2022-10-16T10:19:53;19.00;99.90
7445;DHT22;3764;48.126;11.594;2022-10-16T10:22:27;19.10;99.90
7445;DHT22;3764;48.126;11.594;2022-10-16T10:25:19;19.20;99.90
7445;DHT22;3764;48.126;11.594;2022-10-16T10:27:59;19.10;99.90
7445;DHT22;3764;48.126;11.594;2022-10-16T10:30:34;19.10;99.90
7445;DHT22;3764;48.126;11.594;2022-10-16T10:33:14;19.10;99.90
7445;DHT22;3764;48.126;11.594;2022-10-16T10:35:51;19.10;99.90
7445;DHT22;3764;48.126;11.594;2022-10-16T10:38:30;19.20;99.90
7445;DHT22;3764;48.126;11.594;2022-10-16T10:41:09;19.30;99.90
7445;DHT22;3764;48.126;11.594;2022-10-16T10:43:48;19.40;99.90
7445;DHT22;3764;48.126;11.594;2022-10-16T10:46:25;19.50;99.90
7445;DHT22;3764;48.126;11.594;2022-10-16T10:49:09;19.60;99.90
7445;DHT22;3764;48.126;11.594;2022-10-16T10:51:45;19.60;99.90
7445;DHT22;3764;48.126;11.594;2022-10-16T10:54:18;19.60;99.90
7445;DHT22;3764;48.126;11.594;2022-10-16T10:56:50;19.70;99.90
7445;DHT22;3764;48.126;11.594;2022-10-16T10:59:40;19.80;99.90
7445;DHT22;3764;48.126;11.594;2022-10-16T11:02:17;19.90;99.90
7445;DHT22;3764;48.126;11.594;2022-10-16T11:04:59;19.90;99.90
7445;DHT22;3764;48.126;11.594;2022-10-16T11:07:30;20.00;99.90
7445;DHT22;3764;48.126;11.594;2022-10-16T11:10:02;20.00;99.90
7445;DHT22;3764;48.126;11.594;2022-10-16T11:12:33;20.00;99.90
7445;DHT22;3764;48.126;11.594;2022-10-16T11:15:04;20.00;99.90
7445;DHT22;3764;48.126;11.594;2022-10-16T11:17:35;20.10;99.90
7445;DHT22;3764;48.126;11.594;2022-10-16T11:20:13;20.10;99.90
7445;DHT22;3764;48.126;11.594;2022-10-16T11:22:44;20.20;99.90
7445;DHT22;3764;48.126;11.594;2022-10-16T11:25:16;20.20;99.90
7445;DHT22;3764;48.126;11.594;2022-10-16T11:27:49;20.20;99.90
7445;DHT22;3764;48.126;11.594;2022-10-16T11:30:21;20.30;99.90
7445;DHT22;3764;48.126;11.594;2022-10-16T11:33:03;20.30;99.90
7445;DHT22;3764;48.126;11.594;2022-10-16T11:35:41;20.30;99.90
7445;DHT22;3764;48.126;11.594;2022-10-16T11:38:14;20.40;99.90
7445;DHT22;3764;48.126;11.594;2022-10-16T11:40:43;20.40;99.90
7445;DHT22;3764;48.126;11.594;2022-10-16T11:43:17;20.40;99.90
7445;DHT22;3764;48.126;11.594;2022-10-16T11:45:50;20.40;99.90
7445;DHT22;3764;48.126;11.594;2022-10-16T11:48:24;20.40;99.90
7445;DHT22;3764;48.126;11.594;2022-10-16T11:50:58;20.50;99.90
7445;DHT22;3764;48.126;11.594;2022-10-16T11:53:46;20.60;99.90
7445;DHT22;3764;48.126;11.594;2022-10-16T11:56:17;20.80;99.90
7445;DHT22;3764;48.126;11.594;2022-10-16T11:58:52;20.80;99.90
7445;DHT22;3764;48.126;11.594;2022-10-16T12:01:25;20.80;99.90
7445;DHT22;3764;48.126;11.594;2022-10-16T12:04:03;20.80;99.90
7445;DHT22;3764;48.126;11.594;2022-10-16T12:06:36;20.90;99.90
7445;DHT22;3764;48.126;11.594;2022-10-16T12:09:04;20.90;99.90
7445;DHT22;3764;48.126;11.594;2022-10-16T12:11:35;21.10;99.90
7445;DHT22;3764;48.126;11.594;2022-10-16T12:14:22;21.20;99.90
7445;DHT22;3764;48.126;11.594;2022-10-16T12:17:03;21.40;99.90
7445;DHT22;3764;48.126;11.594;2022-10-16T12:19:32;21.50;99.90
7445;DHT22;3764;48.126;11.594;2022-10-16T12:22:01;21.50;99.90
7445;DHT22;3764;48.126;11.594;2022-10-16T12:24:34;21.50;99.90
7445;DHT22;3764;48.126;11.594;2022-10-16T12:27:03;21.60;99.90
7445;DHT22;3764;48.126;11.594;2022-10-16T12:29:37;21.70;99.90
7445;DHT22;3764;48.126;11.594;2022-10-16T12:32:19;21.70;99.90
7445;DHT22;3764;48.126;11.594;2022-10-16T12:34:49;21.70;99.90
7445;DHT22;3764;48.126;11.594;2022-10-16T12:37:22;21.50;99.90
7445;DHT22;3764;48.126;11.594;2022-10-16T12:39:52;21.50;99.90
7445;DHT22;3764;48.126;11.594;2022-10-16T12:42:23;21.50;99.90
7445;DHT22;3764;48.126;11.594;2022-10-16T12:44:50;21.50;99.90
7445;DHT22;3764;48.126;11.594;2022-10-16T12:47:23;21.50;99.90
7445;DHT22;3764;48.126;11.594;2022-10-16T12:49:52;21.50;99.90
7445;DHT22;3764;48.126;11.594;2022-10-16T12:52:28;21.40;99.90
7445;DHT22;3764;48.126;11.594;2022-10-16T12:54:58;21.40;99.90
7445;DHT22;3764;48.126;11.594;2022-10-16T12:57:40;21.40;99.90
7445;DHT22;3764;48.126;11.594;2022-10-16T13:00:20;21.40;99.90
7445;DHT22;3764;48.126;11.594;2022-10-16T13:03:22;21.50;99.90
7445;DHT22;3764;48.126;11.594;2022-10-16T13:06:08;21.50;99.90
7445;DHT22;3764;48.126;11.594;2022-10-16T13:08:52;21.50;99.90
7445;DHT22;3764;48.126;11.594;2022-10-16T13:11:31;21.50;99.90
7445;DHT22;3764;48.126;11.594;2022-10-16T13:14:30;21.50;99.90
7445;DHT22;3764;48.126;11.594;2022-10-16T13:22:56;21.50;99.90
7445;DHT22;3764;48.126;11.594;2022-10-16T13:25:39;21.40;99.90
7445;DHT22;3764;48.126;11.594;2022-10-16T13:28:11;21.50;99.90
7445;DHT22;3764;48.126;11.594;2022-10-16T13:30:41;21.30;99.90
7445;DHT22;3764;48.126;11.594;2022-10-16T13:33:14;21.40;99.90
7445;DHT22;3764;48.126;11.594;2022-10-16T13:35:53;21.30;99.90
7445;DHT22;3764;48.126;11.594;2022-10-16T13:38:23;21.10;99.90
7445;DHT22;3764;48.126;11.594;2022-10-16T13:40:53;21.20;99.90
7445;DHT22;3764;48.126;11.594;2022-10-16T13:43:24;21.20;99.90
7445;DHT22;3764;48.126;11.594;2022-10-16T13:45:54;21.10;99.90
7445;DHT22;3764;48.126;11.594;2022-10-16T13:48:22;21.00;99.90
7445;DHT22;3764;48.126;11.594;2022-10-16T13:50:59;20.90;99.90
7445;DHT22;3764;48.126;11.594;2022-10-16T13:53:27;20.90;99.90
7445;DHT22;3764;48.126;11.594;2022-10-16T13:58:41;20.70;99.90
7445;DHT22;3764;48.126;11.594;2022-10-16T14:01:16;20.70;99.90
7445;DHT22;3764;48.126;11.594;2022-10-16T14:03:45;20.60;99.90
7445;DHT22;3764;48.126;11.594;2022-10-16T14:09:22;20.60;99.90
7445;DHT22;3764;48.126;11.594;2022-10-16T14:11:51;20.70;99.90
7445;DHT22;3764;48.126;11.594;2022-10-16T14:14:22;20.70;99.90
7445;DHT22;3764;48.126;11.594;2022-10-16T14:16:55;20.70;99.90
7445;DHT22;3764;48.126;11.594;2022-10-16T14:19:26;20.70;99.90
7445;DHT22;3764;48.126;11.594;2022-10-16T14:21:55;20.70;99.90
7445;DHT22;3764;48.126;11.594;2022-10-16T14:24:26;20.30;99.90
7445;DHT22;3764;48.126;11.594;2022-10-16T14:26:54;20.60;99.90
7445;DHT22;3764;48.126;11.594;2022-10-16T14:29:25;20.60;99.90
7445;DHT22;3764;48.126;11.594;2022-10-16T14:31:58;20.70;99.90
7445;DHT22;3764;48.126;11.594;2022-10-16T14:34:28;20.50;99.90
7445;DHT22;3764;48.126;11.594;2022-10-16T14:36:57;20.50;99.90
7445;DHT22;3764;48.126;11.594;2022-10-16T14:39:26;20.50;99.90
7445;DHT22;3764;48.126;11.594;2022-10-16T14:41:56;20.40;99.90
7445;DHT22;3764;48.126;11.594;2022-10-16T14:44:28;20.20;99.90
7445;DHT22;3764;48.126;11.594;2022-10-16T14:46:56;20.30;99.90
7445;DHT22;3764;48.126;11.594;2022-10-16T14:49:25;20.30;99.90
7445;DHT22;3764;48.126;11.594;2022-10-16T14:51:53;20.20;99.90
7445;DHT22;3764;48.126;11.594;2022-10-16T14:54:21;20.20;99.90
7445;DHT22;3764;48.126;11.594;2022-10-16T14:56:50;20.10;99.90
7445;DHT22;3764;48.126;11.594;2022-10-16T14:59:24;20.10;99.90
7445;DHT22;3764;48.126;11.594;2022-10-16T15:01:53;20.10;99.90
7445;DHT22;3764;48.126;11.594;2022-10-16T15:04:20;20.00;99.90
7445;DHT22;3764;48.126;11.594;2022-10-16T15:06:48;20.00;99.90
7445;DHT22;3764;48.126;11.594;2022-10-16T15:09:15;20.00;99.90
7445;DHT22;3764;48.126;11.594;2022-10-16T15:11:42;20.00;99.90
7445;DHT22;3764;48.126;11.594;2022-10-16T15:14:11;19.90;99.90
7445;DHT22;3764;48.126;11.594;2022-10-16T15:16:39;19.90;99.90
7445;DHT22;3764;48.126;11.594;2022-10-16T15:19:07;19.90;99.90
7445;DHT22;3764;48.126;11.594;2022-10-16T15:21:34;19.90;99.90
7445;DHT22;3764;48.126;11.594;2022-10-16T15:24:01;19.90;99.90
7445;DHT22;3764;48.126;11.594;2022-10-16T15:26:29;19.90;99.90
7445;DHT22;3764;48.126;11.594;2022-10-16T15:28:57;19.90;99.90
7445;DHT22;3764;48.126;11.594;2022-10-16T15:31:24;19.90;99.90
7445;DHT22;3764;48.126;11.594;2022-10-16T15:33:52;19.90;99.90
7445;DHT22;3764;48.126;11.594;2022-10-16T15:36:29;19.90;99.90
7445;DHT22;3764;48.126;11.594;2022-10-16T15:38:56;19.90;99.90
7445;DHT22;3764;48.126;11.594;2022-10-16T15:41:23;19.90;99.90
7445;DHT22;3764;48.126;11.594;2022-10-16T15:43:51;19.90;99.90
7445;DHT22;3764;48.126;11.594;2022-10-16T15:46:19;19.90;99.90
7445;DHT22;3764;48.126;11.594;2022-10-16T15:48:47;19.90;99.90
7445;DHT22;3764;48.126;11.594;2022-10-16T15:51:14;19.80;99.90
7445;DHT22;3764;48.126;11.594;2022-10-16T15:53:43;19.80;99.90
7445;DHT22;3764;48.126;11.594;2022-10-16T15:56:13;19.80;99.90
7445;DHT22;3764;48.126;11.594;2022-10-16T15:58:40;19.80;99.90
7445;DHT22;3764;48.126;11.594;2022-10-16T16:01:08;19.80;99.90
7445;DHT22;3764;48.126;11.594;2022-10-16T16:03:36;19.80;99.90
7445;DHT22;3764;48.126;11.594;2022-10-16T16:06:06;19.70;99.90
7445;DHT22;3764;48.126;11.594;2022-10-16T16:08:34;19.70;99.90
7445;DHT22;3764;48.126;11.594;2022-10-16T16:11:04;19.70;99.90
7445;DHT22;3764;48.126;11.594;2022-10-16T16:13:32;19.70;99.90
7445;DHT22;3764;48.126;11.594;2022-10-16T16:16:08;19.60;99.90
7445;DHT22;3764;48.126;11.594;2022-10-16T16:18:35;19.60;99.90
7445;DHT22;3764;48.126;11.594;2022-10-16T16:21:03;19.60;99.90
7445;DHT22;3764;48.126;11.594;2022-10-16T16:23:31;19.60;99.90